createdAt,value
2023-04-09T00:06:27.298Z,57.04
2023-04-09T00:20:33.300Z,57.89
2023-04-09T00:27:34.850Z,58.33
2023-04-09T00:34:36.685Z,58.49
2023-04-09T00:41:38.213Z,58.90
2023-04-09T00:48:40.311Z,59.07
2023-04-09T00:55:41.935Z,59.42
2023-04-09T01:02:43.697Z,59.54
2023-04-09T01:09:54.193Z,59.96
2023-04-09T01:17:02.905Z,59.82
2023-04-09T01:24:47.281Z,60.08
2023-04-09T01:31:57.803Z,60.58
2023-04-09T01:39:00.685Z,60.87
2023-04-09T01:46:03.202Z,61.32
2023-04-09T01:53:04.834Z,61.43
2023-04-09T02:00:07.340Z,61.40
2023-04-09T02:07:23.269Z,61.29
2023-04-09T02:14:26.518Z,61.68
2023-04-09T02:21:28.552Z,62.37
2023-04-09T02:28:30.229Z,62.86
2023-04-09T02:35:31.853Z,62.46
2023-04-09T02:42:33.544Z,62.23
2023-04-09T02:49:35.121Z,62.86
2023-04-09T02:56:36.743Z,63.23
2023-04-09T03:03:40.081Z,63.56
2023-04-09T03:10:41.730Z,63.70
2023-04-09T03:17:43.344Z,63.89
2023-04-09T03:24:44.960Z,64.15
2023-04-09T03:31:46.670Z,65.22
2023-04-09T03:38:48.916Z,65.94
2023-04-09T03:46:00.510Z,66.11
2023-04-09T03:53:02.242Z,66.62
2023-04-09T04:00:07.688Z,67.40
2023-04-09T04:07:24.906Z,68.00
2023-04-09T04:14:35.171Z,69.73
2023-04-09T04:21:45.790Z,71.63
2023-04-09T04:28:47.405Z,73.52
2023-04-09T04:36:07.520Z,75.20
2023-04-09T04:43:16.367Z,76.77
2023-04-09T04:50:18.748Z,77.89
2023-04-09T04:57:32.344Z,78.98
2023-04-09T05:04:37.722Z,79.40
2023-04-09T05:11:41.013Z,80.11
2023-04-09T05:18:48.983Z,80.35
2023-04-09T05:25:50.899Z,79.80
2023-04-09T05:33:01.010Z,80.64
2023-04-09T05:40:03.872Z,80.95
2023-04-09T05:47:05.836Z,82.08
2023-04-09T05:54:15.852Z,81.14
2023-04-09T06:01:17.554Z,81.08
2023-04-09T06:08:19.268Z,80.22
2023-04-09T06:15:21.166Z,81.08
2023-04-09T06:22:22.780Z,80.61
2023-04-09T06:29:24.481Z,80.11
2023-04-09T06:36:27.303Z,80.34
2023-04-09T06:43:28.836Z,78.06
2023-04-09T06:50:30.617Z,77.52
2023-04-09T06:57:32.252Z,77.53
2023-04-09T07:04:33.829Z,76.42
2023-04-09T07:11:35.421Z,77.55
2023-04-09T07:18:37.020Z,77.04
2023-04-09T07:25:38.667Z,77.53
2023-04-09T07:32:40.312Z,74.15
2023-04-09T07:39:42.648Z,74.08
2023-04-09T07:46:44.232Z,73.88
2023-04-09T07:53:45.826Z,74.98
2023-04-09T08:00:48.545Z,75.74
2023-04-09T08:07:53.305Z,74.79
2023-04-09T08:14:54.877Z,74.46
2023-04-09T08:21:56.623Z,74.94
2023-04-09T08:28:58.232Z,74.81
2023-04-09T08:36:01.366Z,74.96
2023-04-09T08:43:05.660Z,73.90
2023-04-09T08:50:07.626Z,72.56
2023-04-09T08:57:09.335Z,73.11
2023-04-09T09:04:11.358Z,71.97
2023-04-09T09:11:28.122Z,70.38
2023-04-09T09:18:48.225Z,70.28
2023-04-09T09:25:49.820Z,68.83
2023-04-09T09:33:11.693Z,66.73
2023-04-09T09:40:26.601Z,63.39
2023-04-09T09:47:29.337Z,62.94
2023-04-09T09:54:33.645Z,59.09
2023-04-09T10:01:36.568Z,61.27
2023-04-09T10:08:38.346Z,61.41
2023-04-09T10:15:39.864Z,59.16
2023-04-09T10:22:41.538Z,56.30
2023-04-09T10:29:45.164Z,57.37
2023-04-09T10:36:51.418Z,54.57
2023-04-09T10:43:52.948Z,53.94
2023-04-09T10:50:54.507Z,54.85
2023-04-09T10:57:56.058Z,54.40
2023-04-09T11:05:27.003Z,49.77
2023-04-09T11:12:28.636Z,45.78
2023-04-09T11:19:30.137Z,42.83
2023-04-09T11:26:35.776Z,40.21
2023-04-09T11:33:37.344Z,39.29
2023-04-09T11:40:48.523Z,36.99
2023-04-09T11:47:50.701Z,36.01
2023-04-09T11:54:52.269Z,35.73
2023-04-09T12:01:53.930Z,36.39
2023-04-09T12:08:59.054Z,36.77
2023-04-09T12:16:00.895Z,34.78
2023-04-09T12:23:04.171Z,33.61
2023-04-09T12:30:06.447Z,32.50
2023-04-09T12:37:08.034Z,31.56
2023-04-09T12:44:10.027Z,30.88
2023-04-09T12:51:12.416Z,30.94
2023-04-09T12:58:14.004Z,30.34
2023-04-09T13:05:15.671Z,31.05
2023-04-09T13:12:17.379Z,29.98
2023-04-09T13:19:18.931Z,30.54
2023-04-09T13:26:20.541Z,29.50
2023-04-09T13:33:22.138Z,30.04
2023-04-09T13:40:23.687Z,28.82
2023-04-09T13:47:25.566Z,29.56
2023-04-09T13:54:27.279Z,29.78
2023-04-09T14:01:30.101Z,30.32
2023-04-09T14:08:31.834Z,29.92
2023-04-09T14:15:34.819Z,30.17
2023-04-09T14:22:36.504Z,29.39
2023-04-09T14:29:38.084Z,29.23
2023-04-09T14:36:39.670Z,29.92
2023-04-09T14:43:41.258Z,29.97
2023-04-09T14:50:43.007Z,30.21
2023-04-09T14:57:44.549Z,31.32
2023-04-09T15:04:46.181Z,30.84
2023-04-09T15:11:47.801Z,31.45
2023-04-09T15:18:51.948Z,32.02
2023-04-09T15:25:53.900Z,31.83
2023-04-09T15:32:55.482Z,31.88
2023-04-09T15:39:57.119Z,31.86
2023-04-09T15:46:58.688Z,32.34
2023-04-09T15:54:00.364Z,33.59
2023-04-09T16:01:07.011Z,31.87
2023-04-09T16:08:09.333Z,32.24
2023-04-09T16:15:11.164Z,32.00
2023-04-09T16:22:13.276Z,32.15
2023-04-09T16:29:16.369Z,31.79
2023-04-09T16:36:17.909Z,32.68
2023-04-09T16:43:19.456Z,34.19
2023-04-09T16:50:21.340Z,34.66
2023-04-09T16:57:22.975Z,35.03
2023-04-09T17:04:24.825Z,36.30
2023-04-09T17:11:26.476Z,36.59
2023-04-09T17:18:28.313Z,37.99
2023-04-09T17:25:29.838Z,39.01
2023-04-09T17:32:31.492Z,40.33
2023-04-09T17:39:33.394Z,41.52
2023-04-09T17:46:36.068Z,42.28
2023-04-09T17:53:37.642Z,43.07
2023-04-09T18:00:39.638Z,43.70
2023-04-09T18:07:41.186Z,44.88
2023-04-09T18:14:43.350Z,45.65
2023-04-09T18:21:44.968Z,45.86
2023-04-09T18:28:46.496Z,46.22
2023-04-09T18:35:48.246Z,46.86
2023-04-09T18:42:52.345Z,47.82
2023-04-09T18:49:53.893Z,48.29
2023-04-09T18:56:57.352Z,48.67
2023-04-09T19:03:59.064Z,48.99
2023-04-09T19:11:00.744Z,49.56
2023-04-09T19:18:02.347Z,50.17
2023-04-09T19:25:04.138Z,51.17
2023-04-09T19:32:06.101Z,51.43
2023-04-09T19:39:08.439Z,51.59
2023-04-09T19:46:10.066Z,52.16
2023-04-09T19:53:11.615Z,52.17
2023-04-09T20:00:14.627Z,52.39
2023-04-09T20:07:16.135Z,52.93
2023-04-09T20:14:17.894Z,53.82
2023-04-09T20:21:19.549Z,54.62
2023-04-09T20:28:21.871Z,55.17
2023-04-09T20:35:23.450Z,55.38
2023-04-09T20:42:25.002Z,55.88
2023-04-09T20:49:27.741Z,56.26
2023-04-09T20:56:29.740Z,56.95
2023-04-09T21:03:31.489Z,57.23
2023-04-09T21:10:33.189Z,57.59
2023-04-09T21:17:34.816Z,58.12
2023-04-09T21:24:36.628Z,58.87
2023-04-09T21:31:38.222Z,58.93
2023-04-09T21:38:39.754Z,59.28
2023-04-09T21:45:41.411Z,59.76
2023-04-09T21:52:44.881Z,59.88
2023-04-09T21:59:46.503Z,60.40
2023-04-09T22:06:48.125Z,60.57
2023-04-09T22:13:49.698Z,60.31
2023-04-09T22:20:51.369Z,60.33
2023-04-09T22:27:53.279Z,60.67
2023-04-09T22:34:54.828Z,60.81
2023-04-09T22:41:56.368Z,60.86
2023-04-09T22:49:04.604Z,61.17
2023-04-09T22:56:07.157Z,61.40
2023-04-09T23:03:09.150Z,61.77
2023-04-09T23:10:14.116Z,62.19
2023-04-09T23:17:15.644Z,61.88
2023-04-09T23:24:17.542Z,62.07
2023-04-09T23:31:19.132Z,62.39
2023-04-09T23:38:20.669Z,62.71
2023-04-09T23:45:23.691Z,62.77
2023-04-09T23:52:26.653Z,62.80
2023-04-09T23:59:31.016Z,63.26
